Edmore, North Dakota
Current Conditions -  °F | °C
As of 7:15 AM on Thursday 30 Oct 2014 (Local Time) from KD55 Reporting Station
Overcast Overcast  
Wind Chill: 22°   Ceiling: 800
Heat Index: 32°   Visibility: 10mi
Dew Point: 28°   Wind: 15mph
Humidity: 87%   Direction: 360°N
Pressure: 30.17"   Gusts: 21mph
Location:  48.41°N, 98.45°W
Report Text: KD55 301215Z AUTO 36013G18KT 10SM OVC008 00/M02 A3017 RMK AO2
Loading
Personal Weather Stations






























Interactive Weather Map
Tropical Storm Tracking
New forecast layout! Learn more

10-Day Weather Forecast

Advertisements
Track Severe Weather on mobile